ケープタウン の空港の天気 - METARとTAF

ケープタウン国際空港 ( FACT / CPT ) - 南アフリカ ケープタウン
飛行場実況気象(Metar)
観測時間08/05 09:00 SAST (08/05 07:00 UTC)
風向・風速南南東 6m/s
視程10km以上
天気現象
なし
気温10℃
湿度58%
気圧1025hPa
METARFACT 050700Z 15012KT CAVOK 10/02 Q1025 NOSIG
過去の天気等 Google飛行場航空写真 Wunderground天気予報

過去48時間のMETAR

飛行場予報(TAF)
発表時間: 8/05 06:00 SAST (8/05 04:00 UTC)
予報対象時間: 5日8時 SAST ~ 6日14時 SAST
風向・風速南南東 7m/s
視程10km以上
なし
5日18時 SAST ~ 5日20時 SAST に徐々に
風向・風速不定 2m/s
6日2時 SAST から
風向・風速南 7m/s
視程10km以上
全天の8割程度の雲 雲底高度 910m
TAF FACT 050400Z 0506/0612 16013KT CAVOK TX17/0612Z TN04/0602Z
BECMG 0516/0518 VRB03KT
FM060000 18013KT 9999 BKN030